createdAt,value
2023-02-25T00:00:31.910Z,12.60
2023-02-25T00:03:35.901Z,13.32
2023-02-25T00:06:38.367Z,12.90
2023-02-25T00:09:40.988Z,13.55
2023-02-25T00:12:43.801Z,12.63
2023-02-25T00:15:46.398Z,13.63
2023-02-25T00:18:54.136Z,13.20
2023-02-25T00:21:56.713Z,12.40
2023-02-25T00:24:58.989Z,13.70
2023-02-25T00:28:05.677Z,13.30
2023-02-25T00:31:13.085Z,13.25
2023-02-25T00:34:17.875Z,12.65
2023-02-25T00:37:20.364Z,12.45
2023-02-25T00:40:23.099Z,12.00
2023-02-25T00:43:25.448Z,12.93
2023-02-25T00:46:30.466Z,12.30
2023-02-25T00:49:33.478Z,12.63
2023-02-25T00:52:39.013Z,12.30
2023-02-25T00:55:41.517Z,12.27
2023-02-25T00:58:45.431Z,12.48
2023-02-25T01:01:47.788Z,12.37
2023-02-25T01:04:50.481Z,12.88
2023-02-25T01:07:52.843Z,12.55
2023-02-25T01:10:55.409Z,12.90
2023-02-25T01:14:00.262Z,11.70
2023-02-25T01:17:03.380Z,11.52
2023-02-25T01:20:11.472Z,12.60
2023-02-25T01:23:14.084Z,12.40
2023-02-25T01:26:16.405Z,12.60
2023-02-25T01:29:23.688Z,12.68
2023-02-25T01:32:26.123Z,11.23
2023-02-25T01:35:28.830Z,11.75
2023-02-25T01:38:31.142Z,12.13
2023-02-25T01:41:35.676Z,13.10
2023-02-25T01:45:15.260Z,12.52
2023-02-25T01:48:20.849Z,12.20
2023-02-25T01:51:27.103Z,12.27
2023-02-25T01:54:30.916Z,11.85
2023-02-25T01:57:33.286Z,12.27
2023-02-25T02:00:36.570Z,12.02
2023-02-25T02:03:40.221Z,11.68
2023-02-25T02:06:45.586Z,11.27
2023-02-25T02:09:56.358Z,11.68
2023-02-25T02:12:58.737Z,11.63
2023-02-25T02:16:19.681Z,11.00
2023-02-25T02:19:43.083Z,10.30
2023-02-25T02:23:04.133Z,11.77
2023-02-25T02:26:46.240Z,11.07
2023-02-25T02:30:10.003Z,11.30
2023-02-25T02:33:55.127Z,12.18
2023-02-25T02:37:19.326Z,11.98
2023-02-25T02:41:01.228Z,10.65
2023-02-25T02:44:16.898Z,11.48
2023-02-25T02:47:26.704Z,10.88
2023-02-25T02:50:43.798Z,10.32
2023-02-25T02:53:52.512Z,10.88
2023-02-25T02:56:57.241Z,11.45
2023-02-25T03:00:17.284Z,11.77
2023-02-25T03:03:36.099Z,11.20
2023-02-25T03:06:42.992Z,11.30
2023-02-25T03:09:52.169Z,12.88
2023-02-25T03:12:55.267Z,11.07
2023-02-25T03:16:01.143Z,12.07
2023-02-25T03:19:17.099Z,11.30
2023-02-25T03:22:27.776Z,11.90
2023-02-25T03:25:47.475Z,10.77
2023-02-25T03:28:50.870Z,11.52
2023-02-25T03:32:09.850Z,11.90
2023-02-25T03:35:17.454Z,10.73
2023-02-25T03:38:22.900Z,10.95
2023-02-25T03:41:30.895Z,10.93
2023-02-25T03:44:39.465Z,10.68
2023-02-25T03:47:43.772Z,10.70
2023-02-25T03:53:55.885Z,9.93
2023-02-25T04:00:01.658Z,10.45
2023-02-25T04:03:05.031Z,10.50
2023-02-25T04:06:08.108Z,11.25
2023-02-25T04:09:10.494Z,10.77
2023-02-25T04:12:13.122Z,11.00
2023-02-25T04:15:15.543Z,10.50
2023-02-25T04:18:18.197Z,11.27
2023-02-25T04:21:35.732Z,10.77
2023-02-25T04:24:38.374Z,9.82
2023-02-25T04:27:40.706Z,11.15
2023-02-25T04:30:43.609Z,10.65
2023-02-25T04:33:50.006Z,10.57
2023-02-25T04:36:52.724Z,10.93
2023-02-25T04:39:55.044Z,10.50
2023-02-25T04:42:57.679Z,9.90
2023-02-25T04:46:00.034Z,10.82
2023-02-25T04:49:03.531Z,11.75
2023-02-25T04:52:05.900Z,10.97
2023-02-25T04:55:09.960Z,9.93
2023-02-25T04:58:13.115Z,6.75
2023-02-25T05:01:15.858Z,6.15
2023-02-25T05:04:18.176Z,4.53
2023-02-25T05:07:20.756Z,4.03
2023-02-25T05:10:23.044Z,4.05
2023-02-25T05:13:27.034Z,3.83
2023-02-25T05:16:29.849Z,3.65
2023-02-25T05:19:32.659Z,4.03
2023-02-25T05:22:35.047Z,3.83
2023-02-25T05:25:41.259Z,3.55
2023-02-25T05:28:43.808Z,4.03
2023-02-25T05:31:46.764Z,4.10
2023-02-25T05:34:49.386Z,3.65
2023-02-25T05:37:52.052Z,2.92
2023-02-25T05:40:55.101Z,3.20
2023-02-25T05:43:58.312Z,3.03
2023-02-25T05:47:00.810Z,2.80
2023-02-25T05:50:03.803Z,2.78
2023-02-25T05:53:06.152Z,2.60
2023-02-25T05:56:13.376Z,2.12
2023-02-25T05:59:16.847Z,2.55
2023-02-25T06:02:19.544Z,2.33
2023-02-25T06:05:22.113Z,2.58
2023-02-25T06:08:24.507Z,2.20
2023-02-25T06:11:30.275Z,1.92
2023-02-25T06:14:32.653Z,2.05
2023-02-25T06:17:35.458Z,1.75
2023-02-25T06:20:40.659Z,1.55
2023-02-25T06:23:44.375Z,1.62
2023-02-25T06:26:47.047Z,2.40
2023-02-25T06:29:49.836Z,2.10
2023-02-25T06:32:52.454Z,1.20
2023-02-25T06:35:55.340Z,1.02
2023-02-25T06:38:57.867Z,1.20
2023-02-25T06:42:00.883Z,1.17
2023-02-25T06:45:03.310Z,1.23
2023-02-25T06:48:06.858Z,1.87
2023-02-25T06:51:10.543Z,3.28
2023-02-25T06:54:13.293Z,1.60
2023-02-25T06:57:15.708Z,1.30
2023-02-25T07:00:18.606Z,1.37
2023-02-25T07:03:20.960Z,1.25
2023-02-25T07:06:23.882Z,1.48
2023-02-25T07:09:26.396Z,1.10
2023-02-25T07:12:29.107Z,1.05
2023-02-25T07:15:31.440Z,1.30
2023-02-25T07:18:34.098Z,1.20
2023-02-25T07:21:38.291Z,1.50
2023-02-25T07:24:41.117Z,1.37
2023-02-25T07:27:44.903Z,1.40
2023-02-25T07:30:47.754Z,1.40
2023-02-25T07:33:51.307Z,1.37
2023-02-25T07:36:53.889Z,1.48
2023-02-25T07:39:59.821Z,6.45
2023-02-25T07:43:03.692Z,2.83
2023-02-25T07:46:06.608Z,1.50
2023-02-25T07:49:09.405Z,1.40
2023-02-25T07:52:11.773Z,1.10
2023-02-25T07:55:14.362Z,1.00
2023-02-25T07:58:17.665Z,0.80
2023-02-25T08:01:24.599Z,1.08
2023-02-25T08:04:29.972Z,1.20
2023-02-25T08:07:32.547Z,1.00
2023-02-25T08:10:36.802Z,1.17
2023-02-25T08:16:42.208Z,2.00
2023-02-25T08:19:44.468Z,1.40
2023-02-25T08:22:47.075Z,1.27
2023-02-25T08:25:55.103Z,1.10
2023-02-25T08:28:58.714Z,1.20
2023-02-25T08:32:01.054Z,1.40
2023-02-25T08:35:04.292Z,1.45
2023-02-25T08:38:06.603Z,1.30
2023-02-25T08:41:09.911Z,1.33
2023-02-25T08:44:12.313Z,1.23
2023-02-25T08:47:16.768Z,1.62
2023-02-25T08:50:19.243Z,1.33
2023-02-25T08:53:23.003Z,1.58
2023-02-25T08:56:25.546Z,1.20
2023-02-25T08:59:28.143Z,1.40
2023-02-25T09:02:30.479Z,1.25
2023-02-25T09:05:33.078Z,1.77
2023-02-25T09:08:35.413Z,1.48
2023-02-25T09:11:38.047Z,1.70
2023-02-25T09:14:40.535Z,1.40
2023-02-25T09:17:43.146Z,1.70
2023-02-25T09:20:50.466Z,1.60
2023-02-25T09:23:53.418Z,1.30
2023-02-25T09:26:55.815Z,1.50
2023-02-25T09:29:58.426Z,1.58
2023-02-25T09:33:00.959Z,1.62
2023-02-25T09:36:26.039Z,1.45
2023-02-25T09:39:28.433Z,1.25
2023-02-25T09:43:19.301Z,1.50
2023-02-25T09:46:23.266Z,1.40
2023-02-25T09:49:38.433Z,1.62
2023-02-25T09:53:07.884Z,1.30
2023-02-25T09:56:15.134Z,1.40
2023-02-25T09:59:21.573Z,1.42
2023-02-25T10:02:49.232Z,1.37
2023-02-25T10:06:03.006Z,1.30
2023-02-25T10:09:30.255Z,1.00
2023-02-25T10:12:56.932Z,1.10
2023-02-25T10:16:17.388Z,1.02
2023-02-25T10:19:29.173Z,1.10
2023-02-25T10:23:02.176Z,1.30
2023-02-25T10:26:22.275Z,0.90
2023-02-25T10:29:49.723Z,0.90
2023-02-25T10:32:54.230Z,1.48
2023-02-25T10:36:07.641Z,1.27
2023-02-25T10:39:11.334Z,1.20
2023-02-25T10:42:13.754Z,1.10
2023-02-25T10:45:31.602Z,1.50
2023-02-25T10:48:35.531Z,1.20
2023-02-25T10:51:38.215Z,1.37
2023-02-25T10:54:49.263Z,1.40
2023-02-25T10:57:52.250Z,1.52
2023-02-25T11:01:00.342Z,1.20
2023-02-25T11:04:06.194Z,0.93
2023-02-25T11:07:41.543Z,1.10
2023-02-25T11:11:04.965Z,0.85
2023-02-25T11:14:28.327Z,1.00
2023-02-25T11:17:32.264Z,0.95
2023-02-25T11:20:35.173Z,0.90
2023-02-25T11:23:43.702Z,0.77
2023-02-25T11:26:49.518Z,0.98
2023-02-25T11:29:52.311Z,0.77
2023-02-25T11:32:57.933Z,0.80
2023-02-25T11:36:01.962Z,0.80
2023-02-25T11:39:26.474Z,0.60
2023-02-25T11:42:30.312Z,0.62
2023-02-25T11:45:39.300Z,0.60
2023-02-25T11:48:58.936Z,0.70
2023-02-25T11:52:09.477Z,0.55
2023-02-25T11:55:28.942Z,0.70
2023-02-25T11:58:37.242Z,0.85
2023-02-25T12:02:17.631Z,0.73
2023-02-25T12:05:26.419Z,0.62
2023-02-25T12:09:06.842Z,0.60
2023-02-25T12:12:52.668Z,1.08
2023-02-25T12:16:26.211Z,0.90
2023-02-25T12:20:06.929Z,0.57
2023-02-25T12:23:27.540Z,0.80
2023-02-25T12:26:46.842Z,0.95
2023-02-25T12:30:20.915Z,0.70
2023-02-25T12:33:49.094Z,0.90
2023-02-25T12:37:15.883Z,0.70
2023-02-25T12:40:24.662Z,0.90
2023-02-25T12:43:41.679Z,0.90
2023-02-25T12:47:21.407Z,0.75
2023-02-25T12:50:29.397Z,64.47
2023-02-25T12:53:41.391Z,7.72
2023-02-25T12:56:54.371Z,6.22
2023-02-25T13:00:34.529Z,0.90
2023-02-25T13:04:06.544Z,0.73
2023-02-25T13:07:40.546Z,0.62
2023-02-25T13:11:21.615Z,1.15
2023-02-25T13:14:43.076Z,3.08
2023-02-25T13:17:57.590Z,1.08
2023-02-25T13:21:33.093Z,0.62
2023-02-25T13:25:14.119Z,0.70
2023-02-25T13:28:41.382Z,0.65
2023-02-25T13:32:24.582Z,0.73
2023-02-25T13:35:39.679Z,0.62
2023-02-25T13:39:00.880Z,0.57
2023-02-25T13:42:42.598Z,0.65
2023-02-25T13:46:02.564Z,0.62
2023-02-25T13:49:32.967Z,1.20
2023-02-25T13:53:13.026Z,1.15
2023-02-25T13:56:34.424Z,0.62
2023-02-25T14:00:03.001Z,0.70
2023-02-25T14:03:33.932Z,0.50
2023-02-25T14:07:13.854Z,0.80
2023-02-25T14:10:46.588Z,0.60
2023-02-25T14:14:11.361Z,0.70
2023-02-25T14:20:38.871Z,0.40
2023-02-25T14:23:45.750Z,0.62
2023-02-25T14:27:33.277Z,0.50
2023-02-25T14:30:39.829Z,0.50
2023-02-25T14:33:57.789Z,0.57
2023-02-25T14:37:25.815Z,2.28
2023-02-25T14:40:37.514Z,1.08
2023-02-25T14:43:40.178Z,0.60
2023-02-25T14:47:03.035Z,0.50
2023-02-25T14:50:13.875Z,0.62
2023-02-25T14:53:42.620Z,0.90
2023-02-25T14:57:09.480Z,0.68
2023-02-25T15:00:25.677Z,0.60
2023-02-25T15:03:46.359Z,0.90
2023-02-25T15:07:08.535Z,0.80
2023-02-25T15:10:26.039Z,1.08
2023-02-25T15:14:20.288Z,1.83
2023-02-25T15:18:04.172Z,1.50
2023-02-25T15:21:36.180Z,0.57
2023-02-25T15:24:41.116Z,0.60
2023-02-25T15:27:50.123Z,0.95
2023-02-25T15:30:58.591Z,0.75
2023-02-25T15:34:23.128Z,0.68
2023-02-25T15:37:25.990Z,0.70
2023-02-25T15:40:34.694Z,0.67
2023-02-25T15:43:42.641Z,0.73
2023-02-25T15:46:49.602Z,0.60
2023-02-25T15:49:52.821Z,0.80
2023-02-25T15:52:58.316Z,0.82
2023-02-25T15:56:03.645Z,0.70
2023-02-25T15:59:06.565Z,0.80
2023-02-25T16:02:30.155Z,0.80
2023-02-25T16:05:35.141Z,0.80
2023-02-25T16:08:57.762Z,0.80
2023-02-25T16:12:07.232Z,1.00
2023-02-25T16:15:28.784Z,0.80
2023-02-25T16:18:36.921Z,1.40
2023-02-25T16:21:44.525Z,0.80
2023-02-25T16:24:53.538Z,1.05
2023-02-25T16:28:22.513Z,1.00
2023-02-25T16:31:29.426Z,1.00
2023-02-25T16:34:45.212Z,1.23
2023-02-25T16:38:29.565Z,1.00
2023-02-25T16:41:38.577Z,1.20
2023-02-25T16:44:44.838Z,1.00
2023-02-25T16:47:55.307Z,1.15
2023-02-25T16:51:07.304Z,2.40
2023-02-25T16:54:15.709Z,1.58
2023-02-25T16:57:21.828Z,1.37
2023-02-25T17:00:25.353Z,1.40
2023-02-25T17:03:33.075Z,1.05
2023-02-25T17:06:35.872Z,1.60
2023-02-25T17:10:02.957Z,1.30
2023-02-25T17:13:05.494Z,1.48
2023-02-25T17:16:22.514Z,1.42
2023-02-25T17:19:25.375Z,1.40
2023-02-25T17:22:28.337Z,1.62
2023-02-25T17:25:37.517Z,1.20
2023-02-25T17:28:42.174Z,1.50
2023-02-25T17:31:56.110Z,1.23
2023-02-25T17:35:02.167Z,1.65
2023-02-25T17:38:04.840Z,1.30
2023-02-25T17:41:07.683Z,1.90
2023-02-25T17:44:14.706Z,3.90
2023-02-25T17:47:24.098Z,1.85
2023-02-25T17:50:35.607Z,1.10
2023-02-25T17:53:46.957Z,1.30
2023-02-25T17:57:18.125Z,1.20
2023-02-25T18:00:24.514Z,1.75
2023-02-25T18:03:30.681Z,1.60
2023-02-25T18:06:43.026Z,1.48
2023-02-25T18:09:45.901Z,1.40
2023-02-25T18:12:48.839Z,1.33
2023-02-25T18:16:22.896Z,1.30
2023-02-25T18:19:31.313Z,1.73
2023-02-25T18:22:44.242Z,1.40
2023-02-25T18:26:12.737Z,6.35
2023-02-25T18:29:15.329Z,5.00
2023-02-25T18:32:17.813Z,1.80
2023-02-25T18:35:22.171Z,1.83
2023-02-25T18:41:28.678Z,1.70
2023-02-25T18:44:31.026Z,1.90
2023-02-25T18:47:33.638Z,1.55
2023-02-25T18:50:37.569Z,1.73
2023-02-25T18:53:41.253Z,1.87
2023-02-25T18:56:43.593Z,2.20
2023-02-25T18:59:49.243Z,1.90
2023-02-25T19:02:54.840Z,1.85
2023-02-25T19:05:58.214Z,1.60
2023-02-25T19:09:01.025Z,1.90
2023-02-25T19:12:03.936Z,1.67
2023-02-25T19:15:08.805Z,1.60
2023-02-25T19:18:13.017Z,1.50
2023-02-25T19:21:18.360Z,1.85
2023-02-25T19:24:23.152Z,1.75
2023-02-25T19:27:28.173Z,1.52
2023-02-25T19:30:35.107Z,1.65
2023-02-25T19:33:37.728Z,1.83
2023-02-25T19:36:43.168Z,1.57
2023-02-25T19:39:45.754Z,1.75
2023-02-25T19:42:49.008Z,1.77
2023-02-25T19:45:52.185Z,1.48
2023-02-25T19:48:54.797Z,1.50
2023-02-25T19:51:57.381Z,1.65
2023-02-25T19:55:00.902Z,1.50
2023-02-25T19:58:03.649Z,1.40
2023-02-25T20:01:08.896Z,1.20
2023-02-25T20:04:11.832Z,1.30
2023-02-25T20:07:15.522Z,1.12
2023-02-25T20:13:26.332Z,1.40
2023-02-25T20:16:32.850Z,1.27
2023-02-25T20:19:35.624Z,1.20
2023-02-25T20:22:39.323Z,1.20
2023-02-25T20:25:42.427Z,1.10
2023-02-25T20:28:45.741Z,1.20
2023-02-25T20:31:48.565Z,1.33
2023-02-25T20:34:51.419Z,1.13
2023-02-25T20:38:15.687Z,1.10
2023-02-25T20:44:20.729Z,1.20
2023-02-25T20:47:26.681Z,1.23
2023-02-25T20:50:29.684Z,1.40
2023-02-25T20:53:32.603Z,1.30
2023-02-25T20:56:34.968Z,1.12
2023-02-25T20:59:37.724Z,1.20
2023-02-25T21:02:40.050Z,1.42
2023-02-25T21:05:43.062Z,1.00
2023-02-25T21:08:49.029Z,1.40
2023-02-25T21:11:51.728Z,1.40
2023-02-25T21:14:54.311Z,1.30
2023-02-25T21:17:56.975Z,1.17
2023-02-25T21:21:10.140Z,1.35
2023-02-25T21:24:15.157Z,1.55
2023-02-25T21:27:18.524Z,1.25
2023-02-25T21:30:21.319Z,1.27
2023-02-25T21:33:23.715Z,1.02
2023-02-25T21:36:26.788Z,1.27
2023-02-25T21:39:29.144Z,1.52
2023-02-25T21:42:32.471Z,1.33
2023-02-25T21:45:34.984Z,1.48
2023-02-25T21:48:39.239Z,1.20
2023-02-25T21:51:41.775Z,1.40
2023-02-25T21:54:44.666Z,1.10
2023-02-25T21:57:47.074Z,1.20
2023-02-25T22:00:55.319Z,3.50
2023-02-25T22:04:02.588Z,4.65
2023-02-25T22:07:04.961Z,1.90
2023-02-25T22:10:08.925Z,1.77
2023-02-25T22:13:11.278Z,1.50
2023-02-25T22:16:15.476Z,1.60
2023-02-25T22:19:17.910Z,1.40
2023-02-25T22:22:20.532Z,1.80
2023-02-25T22:25:23.222Z,1.60
2023-02-25T22:28:25.851Z,1.52
2023-02-25T22:31:29.243Z,1.45
2023-02-25T22:34:32.119Z,1.85
2023-02-25T22:37:34.411Z,1.48
2023-02-25T22:40:37.063Z,1.58
2023-02-25T22:43:39.349Z,1.35
2023-02-25T22:46:42.050Z,1.45
2023-02-25T22:49:44.510Z,1.62
2023-02-25T22:52:47.372Z,1.80
2023-02-25T22:55:49.790Z,1.67
2023-02-25T22:58:53.007Z,1.90
2023-02-25T23:01:55.566Z,1.83
2023-02-25T23:04:58.189Z,1.65
2023-02-25T23:08:01.340Z,2.05
2023-02-25T23:11:08.523Z,1.87
2023-02-25T23:14:11.330Z,1.95
2023-02-25T23:17:13.887Z,2.10
2023-02-25T23:20:16.398Z,2.00
2023-02-25T23:23:19.222Z,2.08
2023-02-25T23:26:28.265Z,2.05
2023-02-25T23:29:30.894Z,2.00
2023-02-25T23:32:33.333Z,2.17
2023-02-25T23:35:40.656Z,1.85
2023-02-25T23:38:42.949Z,2.22
2023-02-25T23:41:45.608Z,2.05
2023-02-25T23:44:48.034Z,2.35
2023-02-25T23:47:50.910Z,2.22
2023-02-25T23:50:53.644Z,2.53
2023-02-25T23:53:58.806Z,2.30
2023-02-25T23:57:01.395Z,2.17
